Time;durP1;ratioP1;P1;durP2;ratioP2;P2;SDS_P1;SDS_P2;PMS_P1;PMS_P2;Temp;Humidity;BMP_temperature;BMP_pressure;BME280_temperature;BME280_humidity;BME280_pressure;Samples;Min_cycle;Max_cycle;Signal;HPM_P1;HPM_P2
2021/11/18 00:01:49;;;;;;;14.23;11.35;;;;;;;12.71;65.57;101964.56;4894543;28;103924;-53
2021/11/18 00:04:15;;;;;;;16.00;11.25;;;;;;;12.71;65.25;101964.56;4897652;28;105379;-54
2021/11/18 00:06:44;;;;;;;16.95;11.63;;;;;;;12.70;65.56;101962.94;4897984;28;102283;-54
2021/11/18 00:09:10;;;;;;;14.68;11.50;;;;;;;12.71;65.60;101966.50;4901608;28;102578;-54
2021/11/18 00:11:39;;;;;;;13.95;10.40;;;;;;;12.72;66.19;101976.31;4897379;28;103657;-53
2021/11/18 00:14:06;;;;;;;15.93;10.88;;;;;;;12.71;65.75;101970.03;4913822;28;102229;-53
2021/11/18 00:16:33;;;;;;;14.65;11.13;;;;;;;12.72;65.50;101954.47;4894519;28;102644;-53
2021/11/18 00:18:59;;;;;;;15.10;10.90;;;;;;;12.71;65.56;101953.66;4897197;28;102630;-53
2021/11/18 00:21:28;;;;;;;16.02;11.40;;;;;;;12.71;65.62;101948.19;4909647;28;103833;-53
2021/11/18 00:23:56;;;;;;;14.57;10.80;;;;;;;12.71;65.67;101953.66;4905693;28;102428;-53
2021/11/18 00:26:25;;;;;;;14.07;10.45;;;;;;;12.72;65.85;101966.22;4904012;28;102211;-53
2021/11/18 00:28:53;;;;;;;17.83;11.30;;;;;;;12.71;65.60;101958.28;4886916;28;102155;-53
2021/11/18 00:31:22;;;;;;;14.17;10.63;;;;;;;12.71;65.71;101969.22;4896752;28;104117;-53
2021/11/18 00:33:49;;;;;;;14.95;10.52;;;;;;;12.72;65.76;101954.47;4900371;28;101950;-54
2021/11/18 00:36:15;;;;;;;14.10;10.98;;;;;;;12.72;65.68;101949.81;4909672;28;102208;-54
2021/11/18 00:38:43;;;;;;;13.32;9.98;;;;;;;12.72;65.64;101965.41;4903445;28;102278;-53
2021/11/18 00:41:11;;;;;;;15.65;10.65;;;;;;;12.71;65.64;101952.81;4900617;28;103931;-53
2021/11/18 00:43:37;;;;;;;17.30;10.88;;;;;;;12.71;65.69;101948.19;4896890;28;102107;-53
2021/11/18 00:46:05;;;;;;;12.90;9.60;;;;;;;12.71;65.76;101942.72;4896951;28;102044;-53
2021/11/18 00:48:31;;;;;;;15.23;11.00;;;;;;;12.71;65.62;101945.44;4900047;28;102508;-53
2021/11/18 00:50:59;;;;;;;13.85;10.40;;;;;;;12.71;65.53;101948.19;4894877;28;103735;-53
2021/11/18 00:53:26;;;;;;;15.40;10.32;;;;;;;12.71;65.61;101947.38;4897999;28;102685;-54
2021/11/18 00:55:54;;;;;;;15.10;10.68;;;;;;;12.71;65.66;101942.72;4893794;28;103519;-53
2021/11/18 00:58:20;;;;;;;13.65;10.05;;;;;;;12.71;65.18;101942.72;4894527;28;102381;-53
2021/11/18 01:00:49;;;;;;;13.95;9.95;;;;;;;12.71;65.82;101942.72;4896017;28;103844;-53
2021/11/18 01:03:18;;;;;;;12.10;9.75;;;;;;;12.72;65.53;101943.53;4896725;28;102187;-53
2021/11/18 01:05:48;;;;;;;11.52;9.73;;;;;;;12.71;65.42;101940.00;4897153;28;102783;-53
2021/11/18 01:08:15;;;;;;;13.27;9.43;;;;;;;12.70;65.60;101941.09;4899927;28;102361;-54
2021/11/18 01:10:44;;;;;;;12.95;9.95;;;;;;;12.71;65.66;101925.50;4907890;28;104076;-53
2021/11/18 01:13:11;;;;;;;12.68;9.88;;;;;;;12.70;65.80;101924.69;4886766;28;104148;-53
2021/11/18 01:15:41;;;;;;;12.65;9.50;;;;;;;12.70;65.88;101932.88;4894779;28;102183;-54
2021/11/18 01:18:08;;;;;;;11.82;9.50;;;;;;;12.70;65.74;101935.63;4899079;28;102260;-53
2021/11/18 01:20:36;;;;;;;12.93;9.93;;;;;;;12.71;65.80;101940.00;4912381;28;104121;-53
2021/11/18 01:23:07;;;;;;;12.80;9.65;;;;;;;12.71;65.69;101937.25;4895436;28;103473;-53
2021/11/18 01:25:36;;;;;;;13.05;10.15;;;;;;;12.70;65.81;101941.09;4898726;28;102449;-53
2021/11/18 01:28:03;;;;;;;12.43;9.15;;;;;;;12.71;65.84;101936.44;4897123;28;102670;-53
2021/11/18 01:30:32;;;;;;;11.27;9.27;;;;;;;12.70;65.83;101932.88;4896743;28;104157;-53
2021/11/18 01:32:59;;;;;;;11.23;8.45;;;;;;;12.70;65.67;101930.16;4881500;28;102469;-53
2021/11/18 01:35:26;;;;;;;15.02;9.63;;;;;;;12.70;65.54;101932.06;4897271;28;102762;-53
2021/11/18 01:37:54;;;;;;;12.38;9.18;;;;;;;12.70;65.56;101935.63;4900104;28;102621;-53
2021/11/18 01:40:23;;;;;;;12.70;9.48;;;;;;;12.70;65.56;101938.34;4897412;28;103972;-53
2021/11/18 01:42:50;;;;;;;11.50;8.75;;;;;;;12.70;65.57;101935.63;4893766;28;102585;-53
2021/11/18 01:45:17;;;;;;;12.30;9.13;;;;;;;12.70;65.70;101934.81;4900082;28;103485;-53
2021/11/18 01:47:44;;;;;;;10.30;8.10;;;;;;;12.69;65.64;101927.66;4892962;28;102135;-53
2021/11/18 01:50:15;;;;;;;11.95;9.05;;;;;;;12.70;65.63;101935.63;4892409;28;103943;-53
2021/11/18 01:52:43;;;;;;;13.38;8.45;;;;;;;12.70;65.90;101938.34;4896605;28;102505;-53
2021/11/18 01:55:11;;;;;;;12.63;9.00;;;;;;;12.69;65.75;101928.50;4911679;28;102438;-53
2021/11/18 01:57:38;;;;;;;12.18;9.40;;;;;;;12.70;65.72;101932.06;4889346;28;102406;-53
2021/11/18 02:00:09;;;;;;;10.88;8.80;;;;;;;12.71;65.61;101928.25;4896170;28;103963;-53
2021/11/18 02:02:36;;;;;;;12.52;8.20;;;;;;;12.70;65.77;101921.97;4897082;28;102399;-54
2021/11/18 02:05:13;;;;;;;12.07;8.25;;;;;;;12.70;65.71;101923.88;4894025;28;102427;-53
2021/11/18 02:07:42;;;;;;;12.70;9.13;;;;;;;12.69;65.77;101928.50;4895862;28;102480;-53
2021/11/18 02:10:11;;;;;;;8.73;6.43;;;;;;;12.69;65.72;101917.59;4896690;28;103737;-53
2021/11/18 02:12:38;;;;;;;9.75;8.10;;;;;;;12.70;65.68;101919.22;4909915;28;102155;-53
2021/11/18 02:15:18;;;;;;;11.98;8.57;;;;;;;12.70;65.83;101919.22;4891584;28;102421;-53
2021/11/18 02:17:45;;;;;;;9.27;7.57;;;;;;;12.70;65.83;101924.69;4881747;28;102392;-53
2021/11/18 02:20:21;;;;;;;9.80;7.97;;;;;;;12.70;65.83;101921.97;4895215;28;103936;-53
2021/11/18 02:22:48;;;;;;;11.52;7.43;;;;;;;12.70;65.88;101924.69;4905834;28;102588;-53
2021/11/18 02:25:15;;;;;;;10.38;7.90;;;;;;;12.69;65.83;101933.97;4895066;28;102467;-53
2021/11/18 02:27:42;;;;;;;8.85;7.20;;;;;;;12.70;65.71;101934.81;4897834;28;102209;-54
2021/11/18 02:30:10;;;;;;;10.73;7.75;;;;;;;12.69;65.81;101933.97;4906895;28;103903;-53
2021/11/18 02:32:40;;;;;;;10.35;7.72;;;;;;;12.69;65.59;101939.44;4902907;28;102155;-53
2021/11/18 02:35:10;;;;;;;9.43;7.40;;;;;;;12.70;65.68;101938.34;4895393;28;103054;-53
2021/11/18 02:37:38;;;;;;;9.40;7.43;;;;;;;12.70;65.66;101935.63;4902624;28;102158;-54
2021/11/18 02:40:06;;;;;;;11.50;8.02;;;;;;;12.69;65.66;101933.97;4899591;28;103892;-53
2021/11/18 02:42:33;;;;;;;10.10;7.60;;;;;;;12.69;65.78;101931.25;4899727;28;102257;-53
2021/11/18 02:45:00;;;;;;;10.18;7.60;;;;;;;12.69;65.92;101925.78;4896438;28;102270;-53
2021/11/18 02:47:27;;;;;;;10.68;7.88;;;;;;;12.70;65.71;101929.34;4898088;28;102590;-53
2021/11/18 02:49:56;;;;;;;10.52;8.13;;;;;;;12.69;65.87;101933.13;4907237;28;103913;-53
2021/11/18 02:52:28;;;;;;;9.60;7.35;;;;;;;12.70;65.65;101929.34;4905116;28;102069;-53
2021/11/18 02:54:56;;;;;;;11.13;8.23;;;;;;;12.69;65.84;101922.19;4897078;28;103863;-53
2021/11/18 02:57:23;;;;;;;10.30;8.23;;;;;;;12.70;65.89;101934.81;4908066;28;102216;-53
2021/11/18 02:59:49;;;;;;;10.18;7.45;;;;;;;12.70;66.39;101924.69;4891258;28;103890;-53
2021/11/18 03:02:16;;;;;;;11.35;8.55;;;;;;;12.69;65.58;101923.06;4884163;28;102687;-53
2021/11/18 03:04:42;;;;;;;9.93;7.95;;;;;;;12.69;66.02;101923.06;4896032;28;102531;-53
2021/11/18 03:07:09;;;;;;;10.68;7.53;;;;;;;12.69;65.78;101917.59;4898439;28;102321;-53
2021/11/18 03:09:37;;;;;;;13.10;8.32;;;;;;;12.68;65.74;101915.91;4898599;28;103855;-53
2021/11/18 03:12:05;;;;;;;10.35;8.00;;;;;;;12.69;65.86;101920.31;4900116;28;102223;-53
2021/11/18 03:14:32;;;;;;;9.90;8.15;;;;;;;12.69;65.74;101919.47;4893210;28;102263;-53
2021/11/18 03:16:59;;;;;;;11.13;7.78;;;;;;;12.68;65.84;101921.38;4908786;28;102312;-54
2021/11/18 03:19:25;;;;;;;10.40;8.20;;;;;;;12.70;65.82;101923.88;4900140;28;103865;-53
2021/11/18 03:21:52;;;;;;;11.00;8.20;;;;;;;12.68;65.75;101926.84;4901955;28;102179;-53
2021/11/18 03:24:19;;;;;;;10.40;8.20;;;;;;;12.69;65.67;101927.66;4895847;28;102195;-54
2021/11/18 03:26:46;;;;;;;9.88;8.30;;;;;;;12.68;65.64;101934.22;4911326;28;102485;-53
2021/11/18 03:29:14;;;;;;;12.95;8.75;;;;;;;12.69;65.93;101922.19;4903122;28;105651;-53
2021/11/18 03:31:42;;;;;;;11.52;8.38;;;;;;;12.70;65.93;101934.81;4910346;28;102243;-53
2021/11/18 03:34:11;;;;;;;11.48;8.35;;;;;;;12.68;66.00;101935.03;4903995;28;102420;-53
2021/11/18 03:36:38;;;;;;;10.48;7.65;;;;;;;12.68;65.82;101932.31;4900407;28;102422;-54
2021/11/18 03:39:07;;;;;;;13.57;8.65;;;;;;;12.68;65.78;101926.84;4892537;28;104190;-58
2021/11/18 03:41:36;;;;;;;10.33;7.40;;;;;;;12.69;65.94;101935.84;4898905;28;102247;-53
2021/11/18 03:44:07;;;;;;;10.57;7.75;;;;;;;12.68;65.86;101921.38;4897848;28;102375;-53
2021/11/18 03:46:41;;;;;;;12.95;8.15;;;;;;;12.68;65.86;101913.19;4894303;28;102701;-53
2021/11/18 03:49:10;;;;;;;12.02;8.10;;;;;;;12.67;65.80;101925.19;4896005;28;103968;-53
2021/11/18 03:51:36;;;;;;;;;;;;;;;12.68;65.87;101926.84;4894855;28;102146;-53
2021/11/18 03:54:05;;;;;;;9.85;7.82;;;;;;;12.68;65.88;101921.38;4901095;28;102265;-53
2021/11/18 03:56:39;;;;;;;18.85;8.20;;;;;;;12.68;65.86;101921.38;4911976;28;102506;-53
2021/11/18 03:59:06;;;;;;;11.68;7.80;;;;;;;12.69;65.86;101922.19;4890942;28;104120;-54
2021/11/18 04:01:35;;;;;;;10.50;8.02;;;;;;;12.68;65.76;101924.13;4898054;28;102356;-54
2021/11/18 04:04:04;;;;;;;20.83;8.68;;;;;;;12.69;65.80;101916.75;4881285;28;102257;-53
2021/11/18 04:06:30;;;;;;;10.02;7.43;;;;;;;12.69;65.67;101917.59;4888969;28;102585;-53
2021/11/18 04:08:57;;;;;;;12.05;7.63;;;;;;;12.68;65.75;101921.38;4902062;28;102950;-53
2021/11/18 04:11:25;;;;;;;8.82;7.15;;;;;;;12.69;65.77;101928.50;4886211;28;102229;-53
2021/11/18 04:13:51;;;;;;;10.10;7.82;;;;;;;12.68;65.88;101932.31;4894804;28;102253;-54
2021/11/18 04:16:18;;;;;;;11.10;7.88;;;;;;;12.68;65.74;101926.03;4903011;28;102367;-54
2021/11/18 04:18:45;;;;;;;9.80;7.70;;;;;;;12.68;66.00;101926.03;4899390;28;103770;-53
2021/11/18 04:21:13;;;;;;;9.13;7.60;;;;;;;12.67;65.74;101930.66;4899272;28;107793;-53
2021/11/18 04:23:39;;;;;;;10.07;8.02;;;;;;;12.67;65.77;101930.66;4897246;28;102195;-53
2021/11/18 04:26:06;;;;;;;11.23;8.20;;;;;;;12.68;65.75;101932.31;4891719;28;102487;-53
2021/11/18 04:28:33;;;;;;;10.13;7.88;;;;;;;12.68;65.98;101932.31;4909729;28;103967;-54
2021/11/18 04:31:02;;;;;;;10.13;7.97;;;;;;;12.68;66.01;101943.22;4903722;28;102024;-53
2021/11/18 04:33:31;;;;;;;9.57;7.65;;;;;;;12.68;65.81;101945.97;4900388;28;102122;-53
2021/11/18 04:35:58;;;;;;;10.10;7.70;;;;;;;12.69;65.91;101947.63;4899083;28;102622;-53
2021/11/18 04:38:27;;;;;;;9.07;7.25;;;;;;;12.69;65.84;101942.16;4901014;28;103904;-53
2021/11/18 04:40:54;;;;;;;10.27;7.32;;;;;;;12.68;65.95;101943.22;4903386;28;102242;-53
2021/11/18 04:43:21;;;;;;;11.48;7.53;;;;;;;12.69;65.93;101955.81;4903946;28;103427;-53
2021/11/18 04:45:48;;;;;;;10.27;7.20;;;;;;;12.68;65.78;101954.16;4903495;28;103105;-53
2021/11/18 04:48:14;;;;;;;9.27;6.97;;;;;;;12.68;65.97;101959.63;4893027;28;103740;-54
2021/11/18 04:50:41;;;;;;;9.98;7.40;;;;;;;12.68;65.75;101958.81;4896215;28;102122;-53
2021/11/18 04:53:08;;;;;;;8.90;7.25;;;;;;;12.68;65.84;101954.16;4903764;28;102526;-53
2021/11/18 04:55:37;;;;;;;11.02;7.60;;;;;;;12.67;66.02;101957.97;4899289;28;102261;-53
2021/11/18 04:58:05;;;;;;;9.13;7.03;;;;;;;12.68;65.96;101962.34;4885604;28;103885;-53
2021/11/18 05:00:36;;;;;;;8.80;7.18;;;;;;;12.68;65.94;101954.16;4899214;28;102417;-53
2021/11/18 05:03:03;;;;;;;10.20;7.15;;;;;;;12.69;65.95;101961.28;4890482;28;102574;-53
2021/11/18 05:05:30;;;;;;;9.68;7.30;;;;;;;12.69;65.95;101960.44;4898129;28;102324;-54
2021/11/18 05:07:56;;;;;;;10.70;7.75;;;;;;;12.69;66.09;101971.38;4905961;28;103883;-54
2021/11/18 05:10:23;;;;;;;9.85;7.20;;;;;;;12.67;65.96;101968.91;4896408;28;102916;-54
2021/11/18 05:12:52;;;;;;;8.73;7.13;;;;;;;12.69;66.15;101971.38;4897435;28;102401;-54
2021/11/18 05:15:21;;;;;;;9.48;7.38;;;;;;;12.69;66.04;101969.50;4893417;28;102483;-53
2021/11/18 05:17:49;;;;;;;9.73;7.35;;;;;;;12.68;66.00;101953.34;4897193;28;103554;-53
2021/11/18 05:20:17;;;;;;;9.32;6.97;;;;;;;12.69;66.06;101961.28;4898585;28;102113;-53
2021/11/18 05:22:45;;;;;;;9.55;7.22;;;;;;;12.68;65.95;101959.63;4881091;28;102603;-53
2021/11/18 05:25:12;;;;;;;9.68;7.20;;;;;;;12.68;65.83;101959.63;4895574;28;102549;-53
2021/11/18 05:27:38;;;;;;;10.18;7.05;;;;;;;12.68;65.92;101959.63;4895543;28;103690;-53
2021/11/18 05:30:09;;;;;;;12.23;7.47;;;;;;;12.68;65.88;101950.59;4898097;28;102109;-53
2021/11/18 05:32:36;;;;;;;9.02;6.95;;;;;;;12.68;66.50;101962.34;4899688;28;102799;-53
2021/11/18 05:35:05;;;;;;;8.25;7.00;;;;;;;12.68;66.13;101965.09;4902299;28;102285;-53
2021/11/18 05:37:31;;;;;;;9.83;6.93;;;;;;;12.69;65.97;101964.03;4892045;28;104061;-53
2021/11/18 05:39:58;;;;;;;10.02;7.22;;;;;;;12.68;66.04;101970.53;4903787;28;102257;-53
2021/11/18 05:42:24;;;;;;;9.82;6.90;;;;;;;12.69;65.86;101974.09;4897137;28;102618;-54
2021/11/18 05:44:51;;;;;;;10.90;6.95;;;;;;;12.68;66.00;101978.75;4907161;28;102221;-53
2021/11/18 05:47:20;;;;;;;9.35;7.15;;;;;;;12.68;66.00;101984.19;4901515;28;104370;-54
2021/11/18 05:49:46;;;;;;;11.13;8.10;;;;;;;12.68;66.00;101986.94;4896000;28;102213;-53
2021/11/18 05:52:13;;;;;;;9.20;7.40;;;;;;;12.68;66.02;101981.47;4896565;28;102438;-53
2021/11/18 05:54:40;;;;;;;10.88;7.60;;;;;;;12.69;65.99;101994.06;4896444;28;102175;-53
2021/11/18 05:57:06;;;;;;;9.32;7.72;;;;;;;12.68;66.16;101986.94;4896915;28;103903;-53
2021/11/18 05:59:33;;;;;;;9.60;7.70;;;;;;;12.68;65.75;101984.19;4896240;28;101878;-53
2021/11/18 06:01:59;;;;;;;9.73;7.43;;;;;;;12.69;66.00;101985.88;4895797;28;102147;-53
2021/11/18 06:04:27;;;;;;;8.98;7.30;;;;;;;12.68;66.14;101995.13;4898239;28;102434;-54
2021/11/18 06:06:54;;;;;;;9.43;7.50;;;;;;;12.69;66.02;101988.59;4895646;28;104342;-54
2021/11/18 06:09:21;;;;;;;9.48;7.50;;;;;;;12.69;66.02;101988.59;4896208;28;102184;-54
2021/11/18 06:11:48;;;;;;;10.75;7.38;;;;;;;12.69;66.25;101985.03;4894973;28;102331;-53
2021/11/18 06:14:15;;;;;;;10.23;7.07;;;;;;;12.69;65.94;101987.75;4914060;28;102310;-53
2021/11/18 06:16:42;;;;;;;8.98;7.28;;;;;;;12.69;66.08;101982.28;4894751;28;104685;-53
2021/11/18 06:19:08;;;;;;;8.73;7.32;;;;;;;12.70;65.99;101983.97;4894076;28;102262;-53
2021/11/18 06:21:40;;;;;;;10.23;7.20;;;;;;;12.70;66.25;101984.78;4895203;28;102480;-53
2021/11/18 06:24:08;;;;;;;8.23;6.95;;;;;;;12.69;66.00;101977.69;4898918;28;102521;-53
2021/11/18 06:26:35;;;;;;;9.63;7.15;;;;;;;12.70;66.26;101984.78;4886826;28;103935;-53
2021/11/18 06:29:01;;;;;;;9.27;7.57;;;;;;;12.70;66.26;101979.31;4892773;28;102243;-53
2021/11/18 06:31:29;;;;;;;8.05;6.47;;;;;;;12.71;65.96;101985.59;4892651;28;102287;-54
2021/11/18 06:33:56;;;;;;;8.73;7.43;;;;;;;12.70;66.26;101978.50;4908339;28;102858;-53
2021/11/18 06:36:22;;;;;;;9.32;6.68;;;;;;;12.70;66.21;101973.03;4892507;28;104124;-53
2021/11/18 06:38:51;;;;;;;11.25;6.75;;;;;;;12.70;66.11;101984.78;4898784;28;102453;-53
2021/11/18 06:41:19;;;;;;;;;;;;;;;12.70;66.22;101973.03;4907013;28;102851;-53
2021/11/18 06:43:46;;;;;;;9.10;7.30;;;;;;;12.70;66.40;101982.06;4905283;28;102596;-53
2021/11/18 06:46:14;;;;;;;8.05;6.55;;;;;;;12.70;66.16;101979.31;4906192;28;105444;-53
2021/11/18 06:48:40;;;;;;;9.32;6.85;;;;;;;12.71;66.14;101989.16;4900313;28;102775;-53
2021/11/18 06:51:10;;;;;;;9.57;7.05;;;;;;;12.71;66.31;101986.44;4893961;28;102374;-53
2021/11/18 06:53:39;;;;;;;8.60;7.30;;;;;;;12.70;66.22;101979.31;4900272;28;102238;-53
2021/11/18 06:56:08;;;;;;;8.40;7.03;;;;;;;12.71;66.14;101989.16;4892212;28;103883;-53
2021/11/18 06:58:35;;;;;;;;;;;;;;;12.72;66.19;101981.78;4896876;28;102446;-53
2021/11/18 07:01:01;;;;;;;8.98;7.05;;;;;;;12.71;66.15;101980.97;4898397;28;105450;-53
2021/11/18 07:03:28;;;;;;;8.60;6.82;;;;;;;12.71;66.24;101980.97;4897174;28;102507;-53
2021/11/18 07:05:55;;;;;;;9.45;6.55;;;;;;;12.72;66.41;101984.50;4900989;28;104249;-53
2021/11/18 07:08:22;;;;;;;10.35;7.18;;;;;;;12.72;66.24;101976.31;4898136;28;102446;-53
2021/11/18 07:10:49;;;;;;;8.68;6.97;;;;;;;12.71;66.19;101970.03;4890354;28;102140;-53
2021/11/18 07:13:22;;;;;;;8.77;6.45;;;;;;;12.72;66.10;101976.31;4900581;28;102465;-54
2021/11/18 07:15:54;;;;;;;8.88;7.07;;;;;;;12.72;66.19;101976.31;4898615;28;103908;-53
2021/11/18 07:18:22;;;;;;;8.45;6.53;;;;;;;12.73;66.20;101983.47;4904834;28;102379;-53
2021/11/18 07:20:49;;;;;;;8.75;6.70;;;;;;;12.71;66.18;101978.22;4893049;28;102566;-53
2021/11/18 07:23:18;;;;;;;10.05;7.07;;;;;;;12.73;66.20;101976.09;4900444;28;102238;-53
2021/11/18 07:25:46;;;;;;;9.77;7.20;;;;;;;12.74;66.19;101972.25;4897205;28;105687;-53
2021/11/18 07:28:12;;;;;;;8.48;7.15;;;;;;;12.73;66.33;101970.63;4895421;28;102076;-53
2021/11/18 07:30:43;;;;;;;8.68;6.80;;;;;;;12.74;66.17;101979.63;4895519;28;102157;-53
2021/11/18 07:33:11;;;;;;;11.05;7.93;;;;;;;12.74;66.42;101979.63;4899217;28;102248;-54
2021/11/18 07:35:37;;;;;;;9.23;7.30;;;;;;;12.73;66.13;101983.47;4892561;28;104076;-53
2021/11/18 07:38:04;;;;;;;11.52;7.15;;;;;;;12.73;66.27;101978.81;4909341;28;102818;-53
2021/11/18 07:40:31;;;;;;;11.32;7.78;;;;;;;12.74;66.35;101985.91;4905431;28;102314;-53
2021/11/18 07:42:58;;;;;;;9.73;7.63;;;;;;;12.73;66.28;101973.34;4900547;28;102591;-53
2021/11/18 07:45:26;;;;;;;11.02;7.18;;;;;;;12.75;66.30;101965.72;4900005;28;104024;-53
2021/11/18 07:47:55;;;;;;;11.93;7.40;;;;;;;12.74;66.52;101957.78;4898505;28;102376;-53
2021/11/18 07:50:22;;;;;;;10.70;7.28;;;;;;;12.74;66.35;101963.25;4897300;28;102163;-54
2021/11/18 07:52:49;;;;;;;10.80;7.40;;;;;;;12.75;66.38;101981.28;4896619;28;102745;-53
2021/11/18 07:55:19;;;;;;;11.35;7.93;;;;;;;12.75;66.55;101973.91;4891356;28;104086;-53
2021/11/18 07:57:45;;;;;;;11.02;7.85;;;;;;;12.75;66.40;101971.19;4895261;28;102240;-53
2021/11/18 08:00:15;;;;;;;10.98;7.35;;;;;;;12.77;66.46;101975.59;4895453;28;102566;-53
2021/11/18 08:02:43;;;;;;;13.02;8.18;;;;;;;12.76;66.40;101972.00;4896070;28;102369;-53
2021/11/18 08:05:12;;;;;;;12.38;7.60;;;;;;;12.74;66.29;101963.25;4896266;28;103896;-53
2021/11/18 08:07:38;;;;;;;;;;;;;;;12.75;66.51;101965.72;4901302;28;102112;-53
2021/11/18 08:10:14;;;;;;;10.20;7.43;;;;;;;12.75;66.54;101973.91;4898230;28;102815;-53
2021/11/18 08:12:42;;;;;;;11.32;8.00;;;;;;;12.74;66.30;101975.00;4894254;28;102532;-53
2021/11/18 08:15:11;;;;;;;10.18;7.57;;;;;;;12.75;66.36;101982.09;4894673;28;103840;-53
2021/11/18 08:17:38;;;;;;;12.15;7.32;;;;;;;12.74;66.34;101976.91;4887738;28;102130;-53
2021/11/18 08:20:06;;;;;;;10.88;7.53;;;;;;;12.73;66.42;101967.88;4901493;28;102414;-53
2021/11/18 08:22:34;;;;;;;10.87;7.33;;;;;;;12.75;66.28;101976.63;4896586;28;102209;-53
2021/11/18 08:25:03;;;;;;;8.50;7.13;;;;;;;12.74;66.40;101980.47;4910895;28;103984;-54
2021/11/18 08:27:32;;;;;;;9.75;7.93;;;;;;;12.75;66.45;101981.28;4902160;28;102179;-53
2021/11/18 08:29:58;;;;;;;10.32;7.35;;;;;;;12.74;66.32;101985.91;4885708;28;102499;-54
2021/11/18 08:32:25;;;;;;;10.15;7.28;;;;;;;12.74;66.39;101979.63;4900219;28;106088;-54
2021/11/18 08:34:52;;;;;;;10.95;7.63;;;;;;;12.74;66.52;101971.44;4896798;28;104089;-53
2021/11/18 08:37:20;;;;;;;10.93;7.47;;;;;;;12.74;66.43;101969.53;4897867;28;102348;-53
2021/11/18 08:39:48;;;;;;;12.80;7.60;;;;;;;12.73;66.36;101962.44;4899243;28;102436;-53
2021/11/18 08:42:17;;;;;;;9.75;7.32;;;;;;;12.75;66.42;101965.72;4910936;28;102178;-54
2021/11/18 08:44:44;;;;;;;10.43;7.53;;;;;;;12.73;66.34;101967.88;4892570;28;103715;-53
2021/11/18 08:47:13;;;;;;;11.15;7.25;;;;;;;12.75;66.60;101971.19;4891911;28;102261;-53
2021/11/18 08:49:40;;;;;;;9.57;7.38;;;;;;;12.75;66.54;101970.34;4897950;28;102320;-55
2021/11/18 08:52:09;;;;;;;9.32;7.32;;;;;;;12.75;66.49;101979.38;4898760;28;102130;-54
2021/11/18 08:54:40;;;;;;;12.25;7.90;;;;;;;12.75;66.50;101976.63;4910176;28;103906;-53
2021/11/18 08:57:09;;;;;;;11.68;7.53;;;;;;;12.73;66.53;101978.81;4897357;28;102518;-53
2021/11/18 08:59:36;;;;;;;10.98;7.65;;;;;;;12.74;66.53;101982.38;4894917;28;102311;-53
2021/11/18 09:02:09;;;;;;;10.90;7.32;;;;;;;12.74;66.22;101976.91;4912730;28;102178;-53
2021/11/18 09:04:36;;;;;;;8.85;7.15;;;;;;;12.75;66.60;101976.63;4889836;28;103716;-54
2021/11/18 09:07:04;;;;;;;9.15;7.25;;;;;;;12.75;66.37;101982.09;4890525;28;102233;-55
2021/11/18 09:09:32;;;;;;;8.35;6.80;;;;;;;12.75;66.34;101987.56;4902570;28;102204;-54
2021/11/18 09:11:59;;;;;;;9.90;7.18;;;;;;;12.75;65.95;101973.91;4901661;28;103715;-54
2021/11/18 09:14:31;;;;;;;9.95;7.53;;;;;;;12.75;66.50;101979.38;4886908;28;103738;-54
2021/11/18 09:16:58;;;;;;;9.35;7.47;;;;;;;12.75;66.63;101973.91;4900980;28;102143;-53
2021/11/18 09:19:28;;;;;;;9.65;6.97;;;;;;;12.77;66.61;101972.84;4888857;28;102364;-53
2021/11/18 09:21:57;;;;;;;11.45;7.47;;;;;;;12.75;66.58;101962.97;4893283;28;102111;-53
2021/11/18 09:24:26;;;;;;;9.38;6.97;;;;;;;12.76;66.41;101966.53;4897486;28;103983;-54
2021/11/18 09:26:55;;;;;;;10.20;7.07;;;;;;;12.77;66.50;101956.47;4896896;28;105211;-53
2021/11/18 09:29:22;;;;;;;10.63;7.47;;;;;;;12.76;66.34;101961.06;4894083;28;102683;-53
2021/11/18 09:31:49;;;;;;;9.55;7.53;;;;;;;12.76;66.73;101966.53;4892963;28;102448;-54
2021/11/18 09:34:16;;;;;;;11.70;8.00;;;;;;;12.77;66.67;101964.66;4875685;28;103961;-53
2021/11/18 09:36:42;;;;;;;9.50;7.38;;;;;;;12.77;66.54;101960.00;4892764;28;102401;-54
2021/11/18 09:39:10;;;;;;;9.60;7.38;;;;;;;12.78;66.64;101960.84;4887244;28;102279;-53
2021/11/18 09:41:50;;;;;;;8.67;6.87;;;;;;;12.77;66.47;101945.53;4891608;28;102333;-54
2021/11/18 09:44:44;;;;;;;10.05;7.65;;;;;;;12.77;67.05;101940.06;4891610;28;103932;-54
2021/11/18 09:48:01;;;;;;;9.27;7.13;;;;;;;12.77;66.56;101937.34;4889102;28;102735;-53
2021/11/18 09:50:49;;;;;;;8.98;7.47;;;;;;;12.77;66.68;101943.63;4870294;28;102956;-53
2021/11/18 09:53:25;;;;;;;8.90;7.10;;;;;;;12.78;66.62;101944.44;4886825;28;102273;-54
2021/11/18 09:56:01;;;;;;;8.63;6.75;;;;;;;12.78;66.66;101941.72;4884024;28;105296;-53
2021/11/18 09:58:50;;;;;;;8.52;7.00;;;;;;;12.78;66.75;101919.84;4883632;28;103139;-54
2021/11/18 10:01:47;;;;;;;8.45;6.90;;;;;;;12.78;66.72;101925.31;4879888;28;102270;-53
2021/11/18 10:04:34;;;;;;;10.23;6.72;;;;;;;12.79;66.65;101921.50;4898792;28;102731;-53
2021/11/18 10:07:09;;;;;;;8.75;6.90;;;;;;;12.79;66.68;101926.97;4899431;28;103897;-53
2021/11/18 10:09:45;;;;;;;8.57;6.80;;;;;;;12.80;66.86;101934.06;4896111;28;102713;-54
2021/11/18 10:12:23;;;;;;;9.48;7.00;;;;;;;12.79;66.73;101929.69;4908911;28;102508;-53
2021/11/18 10:14:56;;;;;;;9.97;6.90;;;;;;;12.81;66.79;101922.09;4909928;28;102152;-53
2021/11/18 10:17:29;;;;;;;10.43;7.65;;;;;;;12.79;66.68;101914.13;4902686;28;104191;-54
2021/11/18 10:19:59;;;;;;;8.85;6.72;;;;;;;12.81;66.71;101906.50;4900024;28;104414;-54
2021/11/18 10:22:28;;;;;;;8.80;7.05;;;;;;;12.82;66.88;101912.78;4894181;28;102366;-53
2021/11/18 10:24:57;;;;;;;9.02;7.20;;;;;;;12.81;66.81;101908.41;4908676;28;102169;-53
2021/11/18 10:27:27;;;;;;;10.75;7.22;;;;;;;12.81;66.76;101914.72;4896956;28;103859;-53
2021/11/18 10:30:10;;;;;;;8.15;6.35;;;;;;;12.82;66.87;101916.34;4898834;28;102067;-54
2021/11/18 10:32:49;;;;;;;8.90;7.38;;;;;;;12.82;66.73;101901.88;4894336;28;104297;-53
2021/11/18 10:35:19;;;;;;;9.55;7.05;;;;;;;12.81;66.91;101898.31;4893068;28;102127;-53
2021/11/18 10:37:49;;;;;;;10.05;7.18;;;;;;;12.82;66.82;101888.22;4898129;28;102718;-53
2021/11/18 10:40:20;;;;;;;8.73;7.55;;;;;;;12.82;66.74;101882.75;4906157;28;102226;-53
2021/11/18 10:42:49;;;;;;;10.35;7.30;;;;;;;12.82;66.85;101880.00;4907288;28;103441;-53
2021/11/18 10:45:34;;;;;;;9.65;7.32;;;;;;;12.83;66.82;101878.91;4905060;28;102150;-53
2021/11/18 10:48:06;;;;;;;9.48;7.10;;;;;;;12.82;66.84;101878.09;4891165;28;103912;-53
2021/11/18 10:50:39;;;;;;;9.38;6.75;;;;;;;12.81;66.95;101881.91;4896147;28;102049;-53
2021/11/18 10:53:14;;;;;;;9.55;7.70;;;;;;;12.83;66.84;101887.13;4888428;28;102361;-54
2021/11/18 10:55:45;;;;;;;9.70;7.53;;;;;;;12.83;66.81;101878.91;4906810;28;102201;-53
2021/11/18 10:58:14;;;;;;;9.93;7.50;;;;;;;12.83;66.91;101885.19;4907844;28;103880;-53
2021/11/18 11:00:46;;;;;;;10.32;7.63;;;;;;;12.84;66.92;101875.09;4896908;28;102434;-53
2021/11/18 11:03:22;;;;;;;10.43;7.40;;;;;;;12.84;67.00;101875.09;4898262;28;102399;-53
2021/11/18 11:06:05;;;;;;;8.85;7.35;;;;;;;12.84;66.87;101864.16;4896644;28;102267;-53
2021/11/18 11:08:33;;;;;;;10.18;7.32;;;;;;;12.84;66.87;101864.16;4899140;28;103842;-54
2021/11/18 11:11:04;;;;;;;10.32;7.82;;;;;;;12.85;66.91;101876.78;4898818;28;102603;-53
2021/11/18 11:13:52;;;;;;;9.75;7.15;;;;;;;12.84;67.00;101875.94;4891790;28;102040;-53
2021/11/18 11:16:47;;;;;;;11.50;7.15;;;;;;;12.84;66.97;101866.91;4882467;28;102525;-53
2021/11/18 11:19:23;;;;;;;10.40;7.25;;;;;;;12.85;67.03;101871.31;4903438;28;104629;-53
2021/11/18 11:21:55;;;;;;;10.27;6.97;;;;;;;12.86;66.86;101862.00;4897342;28;102422;-53